createdAt,value
2022-12-03T00:01:14.302Z,26.30
2022-12-03T00:03:41.013Z,24.65
2022-12-03T00:06:07.922Z,26.38
2022-12-03T00:08:35.041Z,25.17
2022-12-03T00:11:01.550Z,24.73
2022-12-03T00:13:28.080Z,25.38
2022-12-03T00:15:54.837Z,26.27
2022-12-03T00:18:21.425Z,24.70
2022-12-03T00:20:47.994Z,25.38
2022-12-03T00:23:14.563Z,24.63
2022-12-03T00:25:41.108Z,24.70
2022-12-03T00:28:07.743Z,25.17
2022-12-03T00:30:34.343Z,24.33
2022-12-03T00:33:00.829Z,24.27
2022-12-03T00:35:27.370Z,23.85
2022-12-03T00:37:54.800Z,23.15
2022-12-03T00:40:21.410Z,23.02
2022-12-03T00:42:47.933Z,23.00
2022-12-03T00:45:14.526Z,23.88
2022-12-03T00:47:41.014Z,22.65
2022-12-03T00:50:08.335Z,24.80
2022-12-03T00:52:34.934Z,22.58
2022-12-03T00:55:01.505Z,23.75
2022-12-03T00:57:28.164Z,23.30
2022-12-03T00:59:54.754Z,22.63
2022-12-03T01:02:21.616Z,21.90
2022-12-03T01:04:48.377Z,23.52
2022-12-03T01:07:14.957Z,23.15
2022-12-03T01:09:41.432Z,22.25
2022-12-03T01:12:07.908Z,21.50
2022-12-03T01:14:34.457Z,24.23
2022-12-03T01:17:00.996Z,24.23
2022-12-03T01:19:27.592Z,24.33
2022-12-03T01:21:55.509Z,22.33
2022-12-03T01:24:22.486Z,23.33
2022-12-03T01:26:49.024Z,23.25
2022-12-03T01:29:15.726Z,23.80
2022-12-03T01:32:01.124Z,23.20
2022-12-03T01:34:27.679Z,21.50
2022-12-03T01:36:54.227Z,21.27
2022-12-03T01:39:20.958Z,22.10
2022-12-03T01:41:49.606Z,21.53
2022-12-03T01:44:28.590Z,21.95
2022-12-03T01:46:57.132Z,22.55
2022-12-03T01:49:27.533Z,22.00
2022-12-03T01:51:55.383Z,23.50
2022-12-03T01:54:27.345Z,22.67
2022-12-03T01:56:55.149Z,22.42
2022-12-03T01:59:26.193Z,22.67
2022-12-03T02:01:52.849Z,22.27
2022-12-03T02:04:21.971Z,21.67
2022-12-03T02:06:48.693Z,21.75
2022-12-03T02:09:15.146Z,23.52
2022-12-03T02:11:47.365Z,22.35
2022-12-03T02:14:18.265Z,23.90
2022-12-03T02:16:45.188Z,22.92
2022-12-03T02:19:29.823Z,24.70
2022-12-03T02:22:19.234Z,23.13
2022-12-03T02:25:12.393Z,22.30
2022-12-03T02:27:39.830Z,22.23
2022-12-03T02:30:07.863Z,22.88
2022-12-03T02:32:34.460Z,23.83
2022-12-03T02:35:01.018Z,23.35
2022-12-03T02:37:34.088Z,23.47
2022-12-03T02:40:07.865Z,25.45
2022-12-03T02:42:37.329Z,23.58
2022-12-03T02:45:07.092Z,23.10
2022-12-03T02:47:41.792Z,24.90
2022-12-03T02:50:10.499Z,21.13
2022-12-03T02:52:37.255Z,22.15
2022-12-03T02:55:07.254Z,24.08
2022-12-03T02:57:36.068Z,23.77
2022-12-03T03:00:02.643Z,22.20
2022-12-03T03:02:29.235Z,21.60
2022-12-03T03:04:56.949Z,22.50
2022-12-03T03:09:50.027Z,21.92
2022-12-03T03:12:16.939Z,22.20
2022-12-03T03:14:43.561Z,20.90
2022-12-03T03:17:10.155Z,21.40
2022-12-03T03:19:36.625Z,22.40
2022-12-03T03:22:03.232Z,21.30
2022-12-03T03:24:29.815Z,22.13
2022-12-03T03:26:56.420Z,21.73
2022-12-03T03:29:22.961Z,20.75
2022-12-03T03:31:49.803Z,22.25
2022-12-03T03:34:17.510Z,21.95
2022-12-03T03:36:45.041Z,22.80
2022-12-03T03:39:12.437Z,21.85
2022-12-03T03:41:39.049Z,20.52
2022-12-03T03:44:07.501Z,21.02
2022-12-03T03:46:35.020Z,20.20
2022-12-03T03:49:02.799Z,22.38
2022-12-03T03:51:29.662Z,21.67
2022-12-03T03:53:56.597Z,22.73
2022-12-03T03:56:23.617Z,22.10
2022-12-03T03:58:50.257Z,23.13
2022-12-03T04:01:18.306Z,22.90
2022-12-03T04:03:45.066Z,23.08
2022-12-03T04:06:11.802Z,22.00
2022-12-03T04:08:38.357Z,23.17
2022-12-03T04:11:23.859Z,21.48
2022-12-03T04:13:50.371Z,21.35
2022-12-03T04:16:17.018Z,21.08
2022-12-03T04:18:43.542Z,22.40
2022-12-03T04:21:34.039Z,23.10
2022-12-03T04:24:00.872Z,21.45
2022-12-03T04:26:46.388Z,21.02
2022-12-03T04:29:13.592Z,21.25
2022-12-03T04:31:59.450Z,20.90
2022-12-03T04:34:44.631Z,21.60
2022-12-03T04:37:11.544Z,21.15
2022-12-03T04:39:38.026Z,20.65
2022-12-03T04:42:05.816Z,20.92
2022-12-03T04:44:38.741Z,23.20
2022-12-03T04:47:20.220Z,20.20
2022-12-03T04:49:49.098Z,21.98
2022-12-03T04:52:17.889Z,22.92
2022-12-03T04:54:45.258Z,22.17
2022-12-03T04:57:12.501Z,22.05
2022-12-03T04:59:39.693Z,19.90
2022-12-03T05:02:06.738Z,21.55
2022-12-03T05:04:33.560Z,22.05
2022-12-03T05:07:00.105Z,21.33
2022-12-03T05:09:26.698Z,20.17
2022-12-03T05:11:53.222Z,19.75
2022-12-03T05:14:19.913Z,20.73
2022-12-03T05:16:46.539Z,21.13
2022-12-03T05:19:13.192Z,20.40
2022-12-03T05:21:39.707Z,22.80
2022-12-03T05:24:06.458Z,20.98
2022-12-03T05:26:33.005Z,20.67
2022-12-03T05:28:59.504Z,22.25
2022-12-03T05:31:26.143Z,21.67
2022-12-03T05:33:52.769Z,20.63
2022-12-03T05:36:19.285Z,21.80
2022-12-03T05:38:45.785Z,22.13
2022-12-03T05:41:30.693Z,22.90
2022-12-03T05:43:57.296Z,23.15
2022-12-03T05:46:23.965Z,21.90
2022-12-03T05:48:50.639Z,25.30
2022-12-03T05:51:17.186Z,24.40
2022-12-03T05:53:43.709Z,25.77
2022-12-03T05:56:10.292Z,23.38
2022-12-03T05:58:36.794Z,22.15
2022-12-03T06:01:03.371Z,22.55
2022-12-03T06:03:30.029Z,26.05
2022-12-03T06:05:56.595Z,22.77
2022-12-03T06:08:23.134Z,22.55
2022-12-03T06:10:49.691Z,21.67
2022-12-03T06:13:16.232Z,23.08
2022-12-03T06:15:44.095Z,21.08
2022-12-03T06:18:11.092Z,22.70
2022-12-03T06:20:37.809Z,22.65
2022-12-03T06:23:04.253Z,21.15
2022-12-03T06:25:30.781Z,22.77
2022-12-03T06:27:57.363Z,23.52
2022-12-03T06:30:24.007Z,23.25
2022-12-03T06:32:50.492Z,23.47
2022-12-03T06:35:17.218Z,23.45
2022-12-03T06:37:43.782Z,22.10
2022-12-03T06:40:10.893Z,22.60
2022-12-03T06:42:37.433Z,22.65
2022-12-03T06:45:04.459Z,24.67
2022-12-03T06:47:30.953Z,22.85
2022-12-03T06:49:57.468Z,23.40
2022-12-03T06:52:24.080Z,23.00
2022-12-03T06:54:50.809Z,25.70
2022-12-03T06:57:17.491Z,25.20
2022-12-03T06:59:44.015Z,27.10
2022-12-03T07:02:12.450Z,23.35
2022-12-03T07:04:42.117Z,25.42
2022-12-03T07:07:12.573Z,25.48
2022-12-03T07:09:39.209Z,25.88
2022-12-03T07:12:06.018Z,24.77
2022-12-03T07:14:32.572Z,25.45
2022-12-03T07:16:59.181Z,24.70
2022-12-03T07:19:32.099Z,24.45
2022-12-03T07:21:59.278Z,24.40
2022-12-03T07:24:25.863Z,27.25
2022-12-03T07:26:52.406Z,24.80
2022-12-03T07:29:19.087Z,27.15
2022-12-03T07:31:45.976Z,29.73
2022-12-03T07:34:12.555Z,26.75
2022-12-03T07:36:39.120Z,29.15
2022-12-03T07:39:05.668Z,31.70
2022-12-03T07:41:32.347Z,37.58
2022-12-03T07:43:58.946Z,38.07
2022-12-03T07:46:25.645Z,34.93
2022-12-03T07:48:52.256Z,39.65
2022-12-03T07:51:18.956Z,34.30
2022-12-03T07:53:45.514Z,31.10
2022-12-03T07:56:12.233Z,28.63
2022-12-03T07:58:38.794Z,27.88
2022-12-03T08:01:05.704Z,29.52
2022-12-03T08:03:32.285Z,31.67
2022-12-03T08:05:58.653Z,31.25
2022-12-03T08:08:25.085Z,28.10
2022-12-03T08:10:51.672Z,29.63
2022-12-03T08:13:19.089Z,28.20
2022-12-03T08:15:46.093Z,30.20
2022-12-03T08:18:16.105Z,29.02
2022-12-03T08:20:43.879Z,30.20
2022-12-03T08:23:30.636Z,28.90
2022-12-03T08:26:02.085Z,27.15
2022-12-03T08:28:28.682Z,29.10
2022-12-03T08:31:13.662Z,28.90
2022-12-03T08:33:41.739Z,35.00
2022-12-03T08:36:13.859Z,37.67
2022-12-03T08:38:40.271Z,34.47
2022-12-03T08:41:14.936Z,31.30
2022-12-03T08:43:43.713Z,42.08
2022-12-03T08:46:19.057Z,82.93
2022-12-03T08:48:49.131Z,39.15
2022-12-03T08:51:20.592Z,33.60
2022-12-03T08:53:58.135Z,37.08
2022-12-03T08:56:30.002Z,36.17
2022-12-03T08:59:15.618Z,40.95
2022-12-03T09:01:44.319Z,30.85
2022-12-03T09:04:32.041Z,33.28
2022-12-03T09:06:58.668Z,40.60
2022-12-03T09:09:25.544Z,30.08
2022-12-03T09:11:52.519Z,30.30
2022-12-03T09:14:21.211Z,36.10
2022-12-03T09:16:48.000Z,37.15
2022-12-03T09:19:14.525Z,37.92
2022-12-03T09:21:40.970Z,46.92
2022-12-03T09:24:07.574Z,38.35
2022-12-03T09:26:34.173Z,40.58
2022-12-03T09:29:00.611Z,49.30
2022-12-03T09:31:27.166Z,41.55
2022-12-03T09:33:53.858Z,35.70
2022-12-03T09:36:20.474Z,30.83
2022-12-03T09:38:48.213Z,30.88
2022-12-03T09:41:15.120Z,31.90
2022-12-03T09:46:29.791Z,33.35
2022-12-03T09:48:56.720Z,32.38
2022-12-03T09:51:29.640Z,35.63
2022-12-03T09:53:56.119Z,43.72
2022-12-03T09:56:23.518Z,36.90
2022-12-03T09:58:50.178Z,32.58
2022-12-03T10:01:17.865Z,33.33
2022-12-03T10:03:47.942Z,31.95
2022-12-03T10:06:18.319Z,28.52
2022-12-03T10:08:48.376Z,29.27
2022-12-03T10:11:16.165Z,28.20
2022-12-03T10:13:43.214Z,29.58
2022-12-03T10:16:13.276Z,28.92
2022-12-03T10:18:42.284Z,31.42
2022-12-03T10:21:24.011Z,29.42
2022-12-03T10:24:10.465Z,30.90
2022-12-03T10:26:40.702Z,31.75
2022-12-03T10:29:32.885Z,29.80
2022-12-03T10:32:06.804Z,42.53
2022-12-03T10:34:36.238Z,32.63
2022-12-03T10:37:22.572Z,32.67
2022-12-03T10:40:09.885Z,30.87
2022-12-03T10:45:23.206Z,27.38
2022-12-03T10:48:05.727Z,29.20
2022-12-03T10:50:33.292Z,28.83
2022-12-03T10:52:59.809Z,30.27
2022-12-03T10:55:28.977Z,30.58
2022-12-03T10:57:55.513Z,28.60
2022-12-03T11:00:22.827Z,28.35
2022-12-03T11:02:56.500Z,27.88
2022-12-03T11:05:27.469Z,27.60
2022-12-03T11:07:54.398Z,30.23
2022-12-03T11:10:21.339Z,27.48
2022-12-03T11:13:25.687Z,28.30
2022-12-03T11:15:53.201Z,31.15
2022-12-03T11:18:38.045Z,30.77
2022-12-03T11:21:08.074Z,31.90
2022-12-03T11:23:47.002Z,33.88
2022-12-03T11:26:33.830Z,33.40
2022-12-03T11:29:00.415Z,29.65
2022-12-03T11:31:44.893Z,38.13
2022-12-03T11:34:20.869Z,30.58
2022-12-03T11:37:12.502Z,33.92
2022-12-03T11:39:45.364Z,34.90
2022-12-03T11:42:27.018Z,35.85
2022-12-03T11:45:02.706Z,27.25
2022-12-03T11:47:39.610Z,29.58
2022-12-03T11:50:23.630Z,28.20
2022-12-03T11:52:55.589Z,36.83
2022-12-03T11:55:28.564Z,37.40
2022-12-03T11:58:03.857Z,30.33
2022-12-03T12:00:30.552Z,32.92
2022-12-03T12:02:58.621Z,29.13
2022-12-03T12:05:27.245Z,30.58
2022-12-03T12:07:55.593Z,30.45
2022-12-03T12:10:41.123Z,32.97
2022-12-03T12:13:25.619Z,37.88
2022-12-03T12:15:52.203Z,33.80
2022-12-03T12:18:36.895Z,30.67
2022-12-03T12:21:43.227Z,30.55
2022-12-03T12:24:40.093Z,29.42
2022-12-03T12:27:20.414Z,29.40
2022-12-03T12:29:52.981Z,31.05
2022-12-03T12:32:24.996Z,37.80
2022-12-03T12:34:55.176Z,31.33
2022-12-03T12:37:28.232Z,44.25
2022-12-03T12:39:57.458Z,31.20
2022-12-03T12:42:36.920Z,29.83
2022-12-03T12:45:21.419Z,30.88
2022-12-03T12:48:03.150Z,28.30
2022-12-03T12:50:31.209Z,32.22
2022-12-03T12:53:02.748Z,28.67
2022-12-03T12:55:29.302Z,27.17
2022-12-03T12:58:03.411Z,25.90
2022-12-03T13:00:30.145Z,27.55
2022-12-03T13:03:00.975Z,28.75
2022-12-03T13:05:44.935Z,26.45
2022-12-03T13:08:29.052Z,28.85
2022-12-03T13:10:57.827Z,29.33
2022-12-03T13:13:43.367Z,29.35
2022-12-03T13:16:19.357Z,28.43
2022-12-03T13:18:49.004Z,28.60
2022-12-03T13:21:21.406Z,29.17
2022-12-03T13:23:49.596Z,30.65
2022-12-03T13:26:38.990Z,31.38
2022-12-03T13:29:12.209Z,29.17
2022-12-03T13:31:43.440Z,38.05
2022-12-03T13:34:21.236Z,31.35
2022-12-03T13:39:37.923Z,30.83
2022-12-03T13:42:45.746Z,31.40
2022-12-03T13:45:15.362Z,29.98
2022-12-03T13:47:45.841Z,32.47
2022-12-03T13:50:27.533Z,30.17
2022-12-03T13:52:55.049Z,32.42
2022-12-03T13:55:31.773Z,32.65
2022-12-03T13:57:58.901Z,31.30
2022-12-03T14:00:25.428Z,34.95
2022-12-03T14:02:51.990Z,42.80
2022-12-03T14:05:19.101Z,31.00
2022-12-03T14:07:45.608Z,31.40
2022-12-03T14:10:12.945Z,31.88
2022-12-03T14:12:39.485Z,33.17
2022-12-03T14:15:07.139Z,34.08
2022-12-03T14:17:33.716Z,33.08
2022-12-03T14:20:01.425Z,34.05
2022-12-03T14:24:55.412Z,30.20
2022-12-03T14:27:22.410Z,32.90
2022-12-03T14:29:48.949Z,30.77
2022-12-03T14:32:15.521Z,31.75
2022-12-03T14:34:42.347Z,31.17
2022-12-03T14:37:08.819Z,33.60
2022-12-03T14:39:35.325Z,31.13
2022-12-03T14:42:14.023Z,30.55
2022-12-03T14:44:51.294Z,32.97
2022-12-03T14:47:22.421Z,31.67
2022-12-03T14:49:50.484Z,31.58
2022-12-03T14:52:17.772Z,33.78
2022-12-03T14:54:44.543Z,33.25
2022-12-03T14:57:12.868Z,34.30
2022-12-03T14:59:41.641Z,33.88
2022-12-03T15:02:09.708Z,32.75
2022-12-03T15:04:36.400Z,34.05
2022-12-03T15:07:03.656Z,34.60
2022-12-03T15:09:30.131Z,31.92
2022-12-03T15:11:56.735Z,31.00
2022-12-03T15:14:23.308Z,32.58
2022-12-03T15:16:50.035Z,32.65
2022-12-03T15:19:17.260Z,32.05
2022-12-03T15:21:43.810Z,32.78
2022-12-03T15:24:10.807Z,34.38
2022-12-03T15:26:37.531Z,33.25
2022-12-03T15:29:04.058Z,34.60
2022-12-03T15:31:30.712Z,37.63
2022-12-03T15:33:57.272Z,34.40
2022-12-03T15:36:23.819Z,34.78
2022-12-03T15:38:50.449Z,34.75
2022-12-03T15:41:29.582Z,37.75
2022-12-03T15:43:58.492Z,35.22
2022-12-03T15:46:26.221Z,34.38
2022-12-03T15:48:53.077Z,38.13
2022-12-03T15:51:19.677Z,37.72
2022-12-03T15:53:46.306Z,34.38
2022-12-03T15:56:12.918Z,34.25
2022-12-03T15:58:40.154Z,36.55
2022-12-03T16:01:08.105Z,32.88
2022-12-03T16:03:35.353Z,33.00
2022-12-03T16:06:02.139Z,34.08
2022-12-03T16:08:28.760Z,34.60
2022-12-03T16:10:55.565Z,33.75
2022-12-03T16:13:22.107Z,33.40
2022-12-03T16:15:48.559Z,32.40
2022-12-03T16:18:15.081Z,32.45
2022-12-03T16:20:41.664Z,32.00
2022-12-03T16:23:08.335Z,30.58
2022-12-03T16:25:34.904Z,33.33
2022-12-03T16:28:01.288Z,32.05
2022-12-03T16:30:27.752Z,33.30
2022-12-03T16:32:54.249Z,34.15
2022-12-03T16:35:20.643Z,35.28
2022-12-03T16:37:47.122Z,35.67
2022-12-03T16:40:13.663Z,33.83
2022-12-03T16:42:40.770Z,33.63
2022-12-03T16:45:08.127Z,35.88
2022-12-03T16:47:35.305Z,36.25
2022-12-03T16:50:03.953Z,35.35
2022-12-03T16:52:30.544Z,34.10
2022-12-03T16:54:57.041Z,33.67
2022-12-03T16:57:24.383Z,36.42
2022-12-03T16:59:53.304Z,33.53
2022-12-03T17:02:20.172Z,38.70
2022-12-03T17:04:46.594Z,34.73
2022-12-03T17:07:12.938Z,34.65
2022-12-03T17:09:39.438Z,36.20
2022-12-03T17:12:06.168Z,35.67
2022-12-03T17:14:33.564Z,36.40
2022-12-03T17:17:00.171Z,35.92
2022-12-03T17:19:26.631Z,33.65
2022-12-03T17:21:54.006Z,34.30
2022-12-03T17:24:21.430Z,37.33
2022-12-03T17:26:48.071Z,38.47
2022-12-03T17:29:14.501Z,36.00
2022-12-03T17:31:42.464Z,42.67
2022-12-03T17:34:09.369Z,38.95
2022-12-03T17:36:35.852Z,35.35
2022-12-03T17:39:02.266Z,35.95
2022-12-03T17:41:28.653Z,40.58
2022-12-03T17:43:55.072Z,38.17
2022-12-03T17:46:21.621Z,39.55
2022-12-03T17:48:48.064Z,36.72
2022-12-03T17:51:14.677Z,43.03
2022-12-03T17:53:41.163Z,36.58
2022-12-03T17:56:07.646Z,35.67
2022-12-03T17:58:34.671Z,38.33
2022-12-03T18:01:03.169Z,34.10
2022-12-03T18:03:30.317Z,33.00
2022-12-03T18:05:56.858Z,35.40
2022-12-03T18:08:23.334Z,36.65
2022-12-03T18:10:50.160Z,38.33
2022-12-03T18:13:16.578Z,37.07
2022-12-03T18:15:43.020Z,36.13
2022-12-03T18:18:09.450Z,37.83
2022-12-03T18:20:35.962Z,34.85
2022-12-03T18:23:02.539Z,35.60
2022-12-03T18:25:29.619Z,36.03
2022-12-03T18:27:56.406Z,33.25
2022-12-03T18:30:22.909Z,34.83
2022-12-03T18:32:50.607Z,33.30
2022-12-03T18:37:43.750Z,32.97
2022-12-03T18:40:17.898Z,31.88
2022-12-03T18:42:44.348Z,31.05
2022-12-03T18:45:12.854Z,33.67
2022-12-03T18:47:39.285Z,33.65
2022-12-03T18:50:07.234Z,30.33
2022-12-03T18:52:33.675Z,31.20
2022-12-03T18:55:00.063Z,32.20
2022-12-03T18:57:26.714Z,30.98
2022-12-03T18:59:53.447Z,31.40
2022-12-03T19:03:01.956Z,30.73
2022-12-03T19:05:10.402Z,34.08
2022-12-03T19:07:37.158Z,32.08
2022-12-03T19:10:04.340Z,31.57
2022-12-03T19:12:31.196Z,32.38
2022-12-03T19:14:57.555Z,31.80
2022-12-03T19:17:24.039Z,30.48
2022-12-03T19:19:50.470Z,32.30
2022-12-03T19:22:16.856Z,31.27
2022-12-03T19:24:43.783Z,30.50
2022-12-03T19:27:10.294Z,31.85
2022-12-03T19:29:36.732Z,30.65
2022-12-03T19:32:04.016Z,32.97
2022-12-03T19:34:30.928Z,32.47
2022-12-03T19:36:57.884Z,34.97
2022-12-03T19:39:24.771Z,34.15
2022-12-03T19:41:51.393Z,30.95
2022-12-03T19:44:18.923Z,35.03
2022-12-03T19:46:45.374Z,33.17
2022-12-03T19:49:11.965Z,33.00
2022-12-03T19:51:38.399Z,32.77
2022-12-03T19:54:07.316Z,34.92
2022-12-03T19:56:33.880Z,34.88
2022-12-03T19:59:00.348Z,34.90
2022-12-03T20:01:30.105Z,35.03
2022-12-03T20:03:58.929Z,33.38
2022-12-03T20:06:28.519Z,35.88
2022-12-03T20:08:59.710Z,34.10
2022-12-03T20:11:29.372Z,34.58
2022-12-03T20:13:59.180Z,32.80
2022-12-03T20:16:26.514Z,32.78
2022-12-03T20:18:57.218Z,33.63
2022-12-03T20:21:24.205Z,32.65
2022-12-03T20:23:50.779Z,33.13
2022-12-03T20:26:19.667Z,31.77
2022-12-03T20:28:47.985Z,34.63
2022-12-03T20:31:17.064Z,32.47
2022-12-03T20:33:49.034Z,32.80
2022-12-03T20:36:16.729Z,32.03
2022-12-03T20:41:12.431Z,32.37
2022-12-03T20:43:39.155Z,33.25
2022-12-03T20:46:07.638Z,32.43
2022-12-03T20:48:34.361Z,34.15
2022-12-03T20:51:06.774Z,32.07
2022-12-03T20:53:33.550Z,32.53
2022-12-03T20:56:01.332Z,32.65
2022-12-03T20:58:29.411Z,32.38
2022-12-03T21:00:55.955Z,31.63
2022-12-03T21:03:22.497Z,32.63
2022-12-03T21:05:49.476Z,32.40
2022-12-03T21:08:15.906Z,32.10
2022-12-03T21:10:45.537Z,32.00
2022-12-03T21:13:16.649Z,32.80
2022-12-03T21:15:43.985Z,33.15
2022-12-03T21:18:12.252Z,34.63
2022-12-03T21:20:46.352Z,34.00
2022-12-03T21:23:13.975Z,34.30
2022-12-03T21:28:08.699Z,35.22
2022-12-03T21:30:38.487Z,35.70
2022-12-03T21:33:05.959Z,35.83
2022-12-03T21:35:35.517Z,34.90
2022-12-03T21:38:01.982Z,39.28
2022-12-03T21:40:28.336Z,38.83
2022-12-03T21:42:54.841Z,36.85
2022-12-03T21:45:24.913Z,39.58
2022-12-03T21:47:51.466Z,38.65
2022-12-03T21:50:17.982Z,38.30
2022-12-03T21:52:44.397Z,36.55
2022-12-03T21:55:10.833Z,39.10
2022-12-03T21:57:37.629Z,37.40
2022-12-03T22:00:07.596Z,36.22
2022-12-03T22:02:34.407Z,36.42
2022-12-03T22:05:00.853Z,36.08
2022-12-03T22:07:27.356Z,36.25
2022-12-03T22:09:54.005Z,35.72
2022-12-03T22:12:20.716Z,35.75
2022-12-03T22:14:47.498Z,35.63
2022-12-03T22:17:13.969Z,34.97
2022-12-03T22:19:40.439Z,37.03
2022-12-03T22:22:06.922Z,36.20
2022-12-03T22:24:33.406Z,34.13
2022-12-03T22:26:59.912Z,34.95
2022-12-03T22:29:26.351Z,34.58
2022-12-03T22:31:52.799Z,32.78
2022-12-03T22:34:19.231Z,34.92
2022-12-03T22:36:45.588Z,35.20
2022-12-03T22:39:11.953Z,35.50
2022-12-03T22:41:38.918Z,35.50
2022-12-03T22:44:05.508Z,35.35
2022-12-03T22:46:32.083Z,33.80
2022-12-03T22:49:03.474Z,35.00
2022-12-03T22:51:33.676Z,34.70
2022-12-03T22:54:01.695Z,34.60
2022-12-03T22:56:30.377Z,33.75
2022-12-03T22:58:57.695Z,34.50
2022-12-03T23:01:26.817Z,31.35
2022-12-03T23:03:53.749Z,32.15
2022-12-03T23:06:20.711Z,31.15
2022-12-03T23:08:47.672Z,31.85
2022-12-03T23:11:14.637Z,31.67
2022-12-03T23:13:41.421Z,31.58
2022-12-03T23:16:13.067Z,33.72
2022-12-03T23:18:39.583Z,30.88
2022-12-03T23:21:06.140Z,31.48
2022-12-03T23:23:32.561Z,30.88
2022-12-03T23:26:10.580Z,33.22
2022-12-03T23:28:38.748Z,32.80
2022-12-03T23:31:06.089Z,31.63
2022-12-03T23:33:38.024Z,32.00
2022-12-03T23:36:08.085Z,31.15
2022-12-03T23:38:34.462Z,33.53
2022-12-03T23:41:05.833Z,32.97
2022-12-03T23:43:32.309Z,34.40
2022-12-03T23:46:10.570Z,35.80
2022-12-03T23:48:37.371Z,33.85
2022-12-03T23:51:08.660Z,34.15
2022-12-03T23:53:36.336Z,35.80
2022-12-03T23:56:11.451Z,36.97
2022-12-03T23:58:38.631Z,35.22
